Time;durP1;ratioP1;P1;durP2;ratioP2;P2;SDS_P1;SDS_P2;PMS_P1;PMS_P2;Temp;Humidity;BMP_temperature;BMP_pressure;BME280_temperature;BME280_humidity;BME280_pressure;Samples;Min_cycle;Max_cycle;Signal;HPM_P1;HPM_P2
2023/03/25 00:01:33;;;;;;;23.20;15.20;;;;;;;15.83;48.91;99711.81;105378;1266;63905;-46
2023/03/25 00:04:03;;;;;;;19.30;14.30;;;;;;;15.83;48.80;99712.58;105066;1264;59698;-47
2023/03/25 00:06:34;;;;;;;18.90;14.20;;;;;;;15.82;48.86;99707.57;105130;1261;59666;-46
2023/03/25 00:09:06;;;;;;;16.90;13.10;;;;;;;15.79;48.82;99704.44;104972;1267;65124;-46
2023/03/25 00:11:36;;;;;;;21.20;14.00;;;;;;;15.78;48.85;99711.14;104812;1264;62310;-46
2023/03/25 00:14:05;;;;;;;18.40;13.10;;;;;;;15.77;48.74;99710.91;104599;1263;65057;-46
2023/03/25 00:16:40;;;;;;;16.90;13.40;;;;;;;15.74;48.64;99709.42;104965;1264;59752;-46
2023/03/25 00:19:08;;;;;;;18.10;12.50;;;;;;;15.72;48.63;99710.14;104895;1264;59883;-46
2023/03/25 00:21:38;;;;;;;17.50;11.70;;;;;;;15.72;48.57;99705.20;105203;1266;65599;-50
2023/03/25 00:24:07;;;;;;;20.20;12.60;;;;;;;15.73;48.51;99700.89;105038;1263;62726;-46
2023/03/25 00:26:41;;;;;;;19.00;12.10;;;;;;;15.73;48.34;99696.56;105004;1264;64979;-46
2023/03/25 00:29:09;;;;;;;17.00;11.60;;;;;;;15.74;48.41;99684.66;105018;1262;59791;-47
2023/03/25 00:31:39;;;;;;;13.80;10.80;;;;;;;15.74;48.41;99685.68;105094;1262;59703;-46
2023/03/25 00:34:07;;;;;;;17.60;11.60;;;;;;;15.76;48.38;99690.66;105263;1263;64448;-47
2023/03/25 00:36:37;;;;;;;15.80;11.50;;;;;;;15.77;48.93;99685.73;105441;1258;62377;-46
2023/03/25 00:39:07;;;;;;;14.80;11.60;;;;;;;15.78;49.39;99689.20;105430;1257;65116;-46
2023/03/25 00:41:36;;;;;;;17.30;11.40;;;;;;;15.77;49.38;99688.59;105252;1257;60802;-46
2023/03/25 00:44:04;;;;;;;14.60;11.20;;;;;;;15.76;49.54;99693.87;105308;1259;59666;-47
2023/03/25 00:46:33;;;;;;;17.80;12.00;;;;;;;15.74;49.33;99698.76;105159;1260;65422;-47
2023/03/25 00:49:03;;;;;;;16.20;12.30;;;;;;;15.73;49.04;99695.51;105348;1259;62839;-46
2023/03/25 00:51:34;;;;;;;16.00;11.70;;;;;;;15.72;48.89;99696.51;105187;1260;64779;-46
2023/03/25 00:54:22;;;;;;;15.50;11.40;;;;;;;15.70;48.68;99695.90;105290;1258;59745;-46
2023/03/25 00:56:52;;;;;;;16.60;12.10;;;;;;;15.69;48.39;99693.01;105212;1262;59864;-46
2023/03/25 00:59:20;;;;;;;16.60;11.60;;;;;;;15.65;48.30;99692.80;105304;1260;63973;-46
2023/03/25 01:01:52;;;;;;;16.20;12.10;;;;;;;15.67;48.13;99690.60;105138;1257;62631;-46
2023/03/25 01:04:20;;;;;;;15.00;11.80;;;;;;;15.69;47.90;99688.10;105343;1259;64930;-47
2023/03/25 01:06:50;;;;;;;16.50;12.70;;;;;;;15.69;47.79;99685.75;105381;1260;59732;-47
2023/03/25 01:09:20;;;;;;;16.20;11.90;;;;;;;15.69;47.70;99685.09;105359;1257;59659;-46
2023/03/25 01:11:49;;;;;;;15.90;12.10;;;;;;;15.69;47.40;99685.45;105346;1262;65285;-47
2023/03/25 01:14:19;;;;;;;19.80;14.20;;;;;;;15.68;47.30;99683.73;105327;1263;61632;-46
2023/03/25 01:16:49;;;;;;;19.20;12.50;;;;;;;15.68;47.21;99680.26;105295;1257;64737;-46
2023/03/25 01:19:17;;;;;;;17.30;11.70;;;;;;;15.67;47.04;99676.21;105321;1257;59726;-46
2023/03/25 01:21:47;;;;;;;16.40;12.30;;;;;;;15.65;47.03;99672.21;105312;1257;59749;-45
2023/03/25 01:24:15;;;;;;;18.00;13.50;;;;;;;15.66;46.74;99677.48;105106;1262;65378;-46
2023/03/25 01:26:44;;;;;;;21.50;12.90;;;;;;;15.64;46.68;99675.54;105541;1260;63340;-47
2023/03/25 01:29:16;;;;;;;17.10;13.30;;;;;;;15.63;46.71;99682.81;105299;1257;65031;-48
2023/03/25 01:31:44;;;;;;;19.50;12.60;;;;;;;15.61;46.70;99679.95;105092;1258;59723;-45
2023/03/25 01:34:13;;;;;;;21.20;14.10;;;;;;;15.59;46.74;99682.85;105336;1260;59676;-45
2023/03/25 01:36:45;;;;;;;17.80;14.20;;;;;;;15.57;46.72;99684.61;105201;1257;64384;-46
2023/03/25 01:39:18;;;;;;;19.00;12.50;;;;;;;15.56;46.71;99682.96;105483;1257;62803;-46
2023/03/25 01:41:47;;;;;;;19.70;13.10;;;;;;;15.55;46.67;99681.02;105220;1262;65094;-47
2023/03/25 01:44:18;;;;;;;15.90;13.00;;;;;;;15.53;46.50;99681.02;105071;1259;59759;-47
2023/03/25 01:46:47;;;;;;;18.00;14.00;;;;;;;15.53;46.56;99679.50;108720;1259;58763;-46
2023/03/25 01:49:28;;;;;;;18.90;13.70;;;;;;;15.52;46.56;99679.36;108793;1259;65015;-47
2023/03/25 01:52:01;;;;;;;19.20;13.40;;;;;;;15.54;46.38;99679.16;108803;1257;61752;-47
2023/03/25 01:54:29;;;;;;;22.30;13.90;;;;;;;15.56;46.34;99679.84;108878;1257;63743;-49
2023/03/25 01:56:57;;;;;;;15.60;13.00;;;;;;;15.57;46.26;99678.04;108803;1257;59454;-47
2023/03/25 01:59:27;;;;;;;18.20;13.30;;;;;;;15.60;46.06;99677.41;107023;1256;59711;-47
2023/03/25 02:02:01;;;;;;;20.10;14.20;;;;;;;15.62;45.98;99679.98;105554;1259;65444;-47
2023/03/25 02:04:37;;;;;;;19.10;14.60;;;;;;;15.62;45.80;99680.38;105539;1259;61554;-46
2023/03/25 02:07:07;;;;;;;17.50;13.80;;;;;;;15.61;45.80;99681.37;105634;1255;65048;-46
2023/03/25 02:09:37;;;;;;;21.00;15.40;;;;;;;15.58;45.74;99681.29;105588;1259;59755;-47
2023/03/25 02:12:07;;;;;;;17.10;13.40;;;;;;;15.56;45.70;99676.77;105604;1254;62062;-48
2023/03/25 02:14:38;;;;;;;21.20;13.70;;;;;;;15.54;45.66;99675.77;105510;1256;65457;-48
2023/03/25 02:17:17;;;;;;;18.10;13.90;;;;;;;15.52;45.70;99673.34;105359;1254;61403;-45
2023/03/25 02:20:18;;;;;;;18.50;13.80;;;;;;;15.51;45.83;99674.20;105307;1254;64705;-46
2023/03/25 02:23:21;;;;;;;17.00;13.50;;;;;;;15.48;45.76;99671.12;105375;1256;59646;-46
2023/03/25 02:26:15;;;;;;;16.90;13.00;;;;;;;15.45;45.72;99665.11;105465;1258;59657;-47
2023/03/25 02:28:51;;;;;;;17.50;13.70;;;;;;;15.42;45.67;99663.86;105534;1259;65578;-47
2023/03/25 02:31:47;;;;;;;20.10;14.40;;;;;;;15.39;45.73;99663.02;105472;1256;61361;-47
2023/03/25 02:34:37;;;;;;;20.00;14.80;;;;;;;15.35;45.68;99662.74;105390;1259;64003;-47
2023/03/25 02:37:37;;;;;;;20.40;13.70;;;;;;;15.32;45.84;99660.25;105499;1254;59650;-47
2023/03/25 02:40:10;;;;;;;17.00;13.10;;;;;;;15.29;45.83;99658.48;105455;1254;61307;-47
2023/03/25 02:42:43;;;;;;;16.40;13.20;;;;;;;15.27;45.77;99655.87;105456;1254;64205;-46
2023/03/25 02:45:43;;;;;;;17.10;12.70;;;;;;;15.25;45.75;99655.34;105466;1257;61429;-48
2023/03/25 02:48:16;;;;;;;18.30;13.60;;;;;;;15.22;45.79;99647.63;105379;1254;64754;-49
2023/03/25 02:50:47;;;;;;;17.60;12.20;;;;;;;15.22;45.83;99650.89;105216;1257;60834;-46
2023/03/25 02:53:21;;;;;;;19.70;14.40;;;;;;;15.21;45.78;99649.46;105391;1259;59567;-48
2023/03/25 02:55:50;;;;;;;16.00;13.00;;;;;;;15.19;45.81;99644.69;105185;1260;65125;-46
2023/03/25 02:58:20;;;;;;;19.40;12.70;;;;;;;15.18;45.85;99645.36;105422;1258;61517;-46
2023/03/25 03:00:49;;;;;;;21.10;13.70;;;;;;;15.15;45.95;99643.02;105269;1254;63878;-47
2023/03/25 03:03:20;;;;;;;18.50;13.00;;;;;;;15.12;45.98;99641.91;105202;1260;60350;-47
2023/03/25 03:05:49;;;;;;;17.90;14.20;;;;;;;15.10;45.99;99643.08;105476;1259;59558;-46
2023/03/25 03:08:26;;;;;;;17.00;12.90;;;;;;;15.06;46.09;99639.73;105264;1254;65389;-46
2023/03/25 03:11:05;;;;;;;22.10;12.90;;;;;;;15.04;46.19;99640.45;105368;1254;62642;-47
2023/03/25 03:14:26;;;;;;;16.80;12.90;;;;;;;15.02;46.26;99641.92;105337;1254;65038;-47
2023/03/25 03:17:09;;;;;;;18.40;13.60;;;;;;;15.01;46.23;99642.23;104924;1262;59826;-46
2023/03/25 03:19:40;;;;;;;20.00;14.10;;;;;;;14.99;46.36;99643.37;104792;1266;59609;-46
2023/03/25 03:22:13;;;;;;;18.30;13.40;;;;;;;14.96;46.32;99637.52;105164;1259;65388;-47
2023/03/25 03:24:51;;;;;;;20.70;13.60;;;;;;;14.95;46.33;99637.80;105260;1257;62948;-48
2023/03/25 03:27:32;;;;;;;19.40;13.10;;;;;;;14.93;46.61;99638.15;105269;1255;64035;-48
2023/03/25 03:30:09;;;;;;;18.10;13.90;;;;;;;14.91;46.84;99636.66;105366;1259;60463;-48
2023/03/25 03:32:59;;;;;;;16.20;12.60;;;;;;;14.88;46.79;99635.41;105425;1262;60403;-48
2023/03/25 03:36:01;;;;;;;17.20;13.30;;;;;;;14.86;46.79;99636.66;105458;1257;64843;-47
2023/03/25 03:38:34;;;;;;;16.00;12.40;;;;;;;14.84;46.86;99639.86;105377;1254;63125;-48
2023/03/25 03:41:10;;;;;;;16.10;12.70;;;;;;;14.82;46.99;99641.64;105209;1254;65103;-50
2023/03/25 03:43:47;;;;;;;16.10;12.70;;;;;;;14.82;47.10;99646.80;105050;1254;60596;-50
2023/03/25 03:46:22;;;;;;;19.20;13.20;;;;;;;14.82;47.10;99653.86;105294;1257;60718;-48
2023/03/25 03:48:53;;;;;;;17.50;13.40;;;;;;;14.80;47.07;99662.73;105425;1259;65915;-47
2023/03/25 03:51:36;;;;;;;20.40;13.80;;;;;;;14.78;47.03;99665.65;105325;1259;61355;-47
2023/03/25 03:54:25;;;;;;;16.90;13.10;;;;;;;14.78;47.11;99666.19;105219;1257;73638;-46
2023/03/25 03:57:13;;;;;;;17.40;13.70;;;;;;;14.80;47.11;99666.45;105345;1256;60332;-46
2023/03/25 03:59:41;;;;;;;17.40;12.70;;;;;;;14.82;47.02;99664.45;105902;1254;60387;-46
2023/03/25 04:02:22;;;;;;;19.30;12.70;;;;;;;14.84;46.99;99660.17;105329;1256;66068;-47
2023/03/25 04:04:52;;;;;;;16.90;13.90;;;;;;;14.86;47.18;99654.69;105452;1257;62485;-47
2023/03/25 04:07:37;;;;;;;20.00;14.70;;;;;;;14.87;47.21;99655.48;105218;1254;67962;-46
2023/03/25 04:10:17;;;;;;;23.50;15.10;;;;;;;14.86;47.03;99645.27;105120;1256;60561;-46
2023/03/25 04:12:50;;;;;;;20.80;13.80;;;;;;;14.86;47.11;99640.70;105352;1259;60437;-46
2023/03/25 04:15:21;;;;;;;20.60;14.30;;;;;;;14.85;47.21;99644.02;105244;1258;66240;-46
2023/03/25 04:17:51;;;;;;;18.60;13.00;;;;;;;14.83;47.14;99653.04;105158;1258;62705;-46
2023/03/25 04:20:22;;;;;;;20.60;14.40;;;;;;;14.82;47.11;99667.15;105464;1254;65338;-47
2023/03/25 04:22:51;;;;;;;18.70;14.00;;;;;;;14.79;47.09;99670.61;105540;1259;60476;-46
2023/03/25 04:25:24;;;;;;;17.80;13.60;;;;;;;14.77;47.16;99665.02;105401;1254;60546;-46
2023/03/25 04:27:57;;;;;;;20.60;14.30;;;;;;;14.75;47.26;99665.03;105522;1254;65155;-46
2023/03/25 04:30:27;;;;;;;19.10;13.20;;;;;;;14.75;47.24;99664.93;105630;1258;62337;-47
2023/03/25 04:32:55;;;;;;;17.90;13.00;;;;;;;14.73;47.30;99665.27;105526;1259;65010;-47
2023/03/25 04:35:27;;;;;;;18.10;12.50;;;;;;;14.72;47.22;99663.48;105280;1257;60483;-46
2023/03/25 04:37:56;;;;;;;16.10;12.40;;;;;;;14.72;47.29;99661.92;105407;1254;60559;-46
2023/03/25 04:40:25;;;;;;;16.70;13.20;;;;;;;14.70;47.34;99660.63;105514;1259;66022;-46
2023/03/25 04:42:55;;;;;;;19.50;13.10;;;;;;;14.69;47.35;99659.38;105195;1254;62813;-46
2023/03/25 04:45:24;;;;;;;18.30;12.50;;;;;;;14.67;47.43;99655.34;105387;1259;64658;-46
2023/03/25 04:47:54;;;;;;;22.90;12.50;;;;;;;14.66;47.50;99652.79;105334;1256;60537;-47
2023/03/25 04:50:26;;;;;;;18.80;13.90;;;;;;;14.65;47.54;99648.27;105303;1254;60463;-46
2023/03/25 04:53:01;;;;;;;18.40;13.30;;;;;;;14.65;47.64;99640.19;105462;1255;64880;-46
2023/03/25 04:55:33;;;;;;;19.60;13.60;;;;;;;14.64;47.71;99638.73;105008;1254;61473;-47
2023/03/25 04:58:01;;;;;;;15.90;12.40;;;;;;;14.62;47.72;99640.52;105059;1259;64733;-47
2023/03/25 05:00:32;;;;;;;18.00;12.70;;;;;;;14.61;47.84;99640.45;105427;1254;60572;-47
2023/03/25 05:03:01;;;;;;;15.60;12.20;;;;;;;14.60;47.99;99639.10;105152;1254;60556;-47
2023/03/25 05:05:30;;;;;;;20.00;12.80;;;;;;;14.61;48.00;99639.89;105243;1254;65008;-47
2023/03/25 05:08:00;;;;;;;15.20;12.00;;;;;;;14.63;48.20;99633.37;105196;1259;63012;-47
2023/03/25 05:10:29;;;;;;;20.60;13.50;;;;;;;14.64;48.54;99633.23;105183;1259;64006;-47
2023/03/25 05:13:02;;;;;;;18.00;12.50;;;;;;;14.66;48.75;99633.83;105770;1254;60511;-48
2023/03/25 05:32:44;;;;;;;14.90;11.80;;;;;;;15.05;48.32;99621.30;102121;1296;605005;-49
2023/03/25 05:35:13;;;;;;;16.30;11.80;;;;;;;15.44;47.40;99618.55;104379;1270;100948;-50
2023/03/25 05:37:42;;;;;;;19.80;13.30;;;;;;;15.45;47.28;99615.43;104339;1266;59563;-50
2023/03/25 05:40:11;;;;;;;15.40;12.30;;;;;;;15.46;47.29;99617.20;104577;1269;64913;-50
2023/03/25 05:42:45;;;;;;;17.00;13.30;;;;;;;15.45;47.44;99617.10;104602;1267;62526;-51
2023/03/25 05:45:15;;;;;;;19.20;13.00;;;;;;;15.42;47.38;99616.30;104584;1266;64891;-49
2023/03/25 05:47:45;;;;;;;15.30;12.60;;;;;;;15.38;47.31;99607.41;108517;1266;56999;-50
2023/03/25 05:50:16;;;;;;;17.10;12.60;;;;;;;15.35;47.44;99601.59;108408;1267;57014;-50
2023/03/25 05:52:48;;;;;;;18.70;12.80;;;;;;;15.33;47.79;99596.96;104707;1268;64711;-50
2023/03/25 05:55:18;;;;;;;18.90;13.50;;;;;;;15.32;47.88;99596.73;104636;1266;62463;-49
2023/03/25 05:57:48;;;;;;;21.50;13.80;;;;;;;15.31;47.91;99598.46;104811;1266;65023;-50
2023/03/25 06:00:18;;;;;;;15.60;12.60;;;;;;;15.30;47.99;99598.80;104979;1269;59669;-50
2023/03/25 06:02:47;;;;;;;19.60;13.00;;;;;;;15.29;48.07;99595.73;104641;1267;59755;-49
2023/03/25 06:05:16;;;;;;;17.20;13.20;;;;;;;15.28;48.06;99595.30;104677;1270;65549;-49
2023/03/25 06:07:46;;;;;;;19.00;13.40;;;;;;;15.27;48.12;99591.04;104689;1266;62388;-49
2023/03/25 06:10:15;;;;;;;16.70;12.70;;;;;;;15.25;48.05;99589.78;104544;1267;65018;-49
2023/03/25 06:12:45;;;;;;;17.40;12.50;;;;;;;15.22;48.09;99592.17;106887;1267;59640;-49
2023/03/25 06:15:16;;;;;;;17.50;13.30;;;;;;;15.21;48.14;99591.09;104544;1269;59648;-49
2023/03/25 06:17:50;;;;;;;18.20;12.80;;;;;;;15.20;48.14;99586.13;104601;1269;65372;-49
2023/03/25 06:20:19;;;;;;;20.60;13.00;;;;;;;15.14;48.20;99589.60;104749;1269;61765;-49
2023/03/25 06:22:49;;;;;;;17.60;13.20;;;;;;;15.08;48.22;99592.08;104495;1267;65043;-50
2023/03/25 06:25:19;;;;;;;17.50;12.50;;;;;;;15.05;48.32;99590.42;104620;1267;60441;-48
2023/03/25 06:27:48;;;;;;;21.60;14.10;;;;;;;15.03;48.40;99594.27;105761;1270;59611;-49
2023/03/25 06:30:20;;;;;;;20.00;13.10;;;;;;;15.02;48.45;99592.73;104677;1266;65452;-51
2023/03/25 06:33:09;;;;;;;19.70;12.40;;;;;;;15.00;48.56;99586.20;104602;1269;64028;-49
2023/03/25 06:35:44;;;;;;;19.00;14.00;;;;;;;14.98;48.69;99584.58;104652;1267;65124;-49
2023/03/25 06:38:12;;;;;;;20.70;14.30;;;;;;;14.96;48.77;99582.02;104524;1267;59663;-48
2023/03/25 06:41:01;;;;;;;20.20;15.00;;;;;;;14.95;48.91;99578.84;104663;1269;59653;-49
2023/03/25 06:43:33;;;;;;;21.50;14.80;;;;;;;14.94;48.97;99576.22;104539;1271;65829;-49
2023/03/25 06:46:24;;;;;;;19.20;14.90;;;;;;;14.94;49.12;99574.86;104702;1267;62435;-49
2023/03/25 06:49:20;;;;;;;19.30;14.80;;;;;;;14.94;49.13;99574.58;104634;1269;64921;-50
2023/03/25 06:51:49;;;;;;;21.60;14.70;;;;;;;14.94;49.19;99574.02;104440;1265;59804;-59
2023/03/25 06:54:24;;;;;;;;;;;;;;;14.95;49.35;99574.57;104658;1267;59669;-50
2023/03/25 06:56:53;;;;;;;19.40;15.30;;;;;;;14.97;49.37;99574.40;104645;1270;65394;-50
2023/03/25 06:59:22;;;;;;;19.30;15.20;;;;;;;14.98;49.42;99571.88;104681;1269;62422;-49
2023/03/25 07:01:50;;;;;;;25.30;16.30;;;;;;;15.02;49.51;99564.53;104760;1267;64982;-50
2023/03/25 07:04:19;;;;;;;26.40;16.90;;;;;;;15.09;49.54;99562.59;104852;1267;59742;-49
2023/03/25 07:06:55;;;;;;;24.60;17.40;;;;;;;15.16;49.53;99556.63;104622;1263;59737;-51
2023/03/25 07:09:25;;;;;;;26.00;19.10;;;;;;;15.24;49.48;99551.05;105043;1270;64437;-53
2023/03/25 07:11:54;;;;;;;28.90;19.80;;;;;;;15.32;49.38;99547.14;104785;1266;62631;-52
2023/03/25 07:14:28;;;;;;;26.20;19.10;;;;;;;15.39;49.24;99544.02;105222;1264;65034;-50
2023/03/25 07:16:56;;;;;;;26.00;18.50;;;;;;;15.46;48.99;99554.52;105204;1261;60736;-50
2023/03/25 07:19:31;;;;;;;23.70;16.90;;;;;;;15.52;48.77;99564.53;105073;1263;59704;-52
2023/03/25 07:22:01;;;;;;;21.30;15.50;;;;;;;15.55;48.59;99561.98;105043;1263;65573;-50
2023/03/25 07:24:31;;;;;;;20.20;15.50;;;;;;;15.59;48.45;99560.14;105268;1262;62626;-49
2023/03/25 07:26:59;;;;;;;18.40;14.90;;;;;;;15.62;48.39;99558.06;105111;1262;65027;-50
2023/03/25 07:29:29;;;;;;;18.70;15.30;;;;;;;15.64;48.34;99553.55;105164;1260;59962;-49
2023/03/25 07:31:57;;;;;;;19.70;15.50;;;;;;;15.67;48.29;99552.16;105045;1260;59849;-50
2023/03/25 07:34:25;;;;;;;22.10;15.10;;;;;;;15.70;48.51;99550.02;105331;1262;65389;-49
2023/03/25 07:36:55;;;;;;;20.70;14.90;;;;;;;15.77;48.35;99541.80;105151;1263;61639;-48
2023/03/25 07:39:24;;;;;;;17.10;13.80;;;;;;;15.85;48.13;99535.09;104995;1262;65080;-48
2023/03/25 07:41:54;;;;;;;18.90;13.80;;;;;;;15.94;47.87;99533.56;105620;1263;59772;-48
2023/03/25 07:44:42;;;;;;;18.30;14.80;;;;;;;16.03;47.68;99535.62;105308;1263;59756;-48
2023/03/25 07:47:12;;;;;;;17.50;14.90;;;;;;;16.11;47.36;99530.79;105143;1263;65417;-49
2023/03/25 07:49:41;;;;;;;16.20;13.00;;;;;;;16.15;47.18;99530.66;105130;1262;62623;-48
2023/03/25 07:52:09;;;;;;;19.10;15.30;;;;;;;16.20;47.18;99528.89;105048;1260;65084;-48
2023/03/25 07:54:37;;;;;;;22.00;15.70;;;;;;;16.24;47.09;99525.93;105200;1262;59758;-48
2023/03/25 07:57:06;;;;;;;20.60;15.40;;;;;;;16.28;47.01;99522.45;105291;1261;59778;-48
2023/03/25 07:59:36;;;;;;;21.90;15.10;;;;;;;16.31;47.12;99520.73;105144;1262;64615;-51
2023/03/25 08:02:05;;;;;;;17.20;13.40;;;;;;;16.34;47.07;99518.93;105337;1260;62286;-52
2023/03/25 08:04:34;;;;;;;16.80;13.60;;;;;;;16.38;47.00;99521.02;105530;1261;64814;-50
2023/03/25 08:07:03;;;;;;;20.20;13.90;;;;;;;16.41;47.09;99521.45;105361;1257;59666;-48
2023/03/25 08:09:32;;;;;;;17.30;14.00;;;;;;;16.48;47.28;99518.36;105462;1257;59682;-50
2023/03/25 08:12:01;;;;;;;18.70;14.40;;;;;;;16.56;47.23;99512.88;105324;1260;65513;-50
2023/03/25 08:14:30;;;;;;;17.70;14.20;;;;;;;16.61;47.08;99506.92;105375;1260;62275;-51
2023/03/25 08:16:59;;;;;;;22.80;15.40;;;;;;;16.63;46.93;99502.60;105290;1260;65226;-50
2023/03/25 08:19:32;;;;;;;19.70;14.50;;;;;;;16.65;46.88;99497.63;105210;1259;59723;-50
2023/03/25 08:22:04;;;;;;;18.60;15.10;;;;;;;16.66;46.89;99498.00;105208;1257;59631;-49
2023/03/25 08:24:33;;;;;;;19.00;15.40;;;;;;;16.68;47.04;99487.65;105434;1259;65378;-50
2023/03/25 08:27:08;;;;;;;17.80;14.50;;;;;;;16.75;46.92;99486.35;105197;1260;62770;-49
2023/03/25 08:29:46;;;;;;;20.40;15.40;;;;;;;16.81;47.04;99485.20;105306;1259;64798;-51
2023/03/25 08:32:14;;;;;;;19.40;14.40;;;;;;;16.87;46.95;99481.95;105282;1258;60783;-49
2023/03/25 08:34:42;;;;;;;19.60;15.30;;;;;;;16.94;46.98;99473.95;105246;1257;61248;-50
2023/03/25 08:37:13;;;;;;;19.20;15.30;;;;;;;17.02;46.95;99466.02;105197;1260;65380;-51
2023/03/25 08:39:43;;;;;;;19.50;15.40;;;;;;;17.10;46.59;99468.08;105357;1260;62674;-51
2023/03/25 08:42:12;;;;;;;18.70;15.60;;;;;;;17.14;46.55;99462.08;105475;1259;65241;-48
2023/03/25 08:44:40;;;;;;;19.30;15.70;;;;;;;17.18;46.64;99451.85;105333;1259;59714;-53
2023/03/25 08:47:10;;;;;;;20.10;15.50;;;;;;;17.24;46.47;99446.02;105179;1257;60542;-50
2023/03/25 08:49:40;;;;;;;20.60;14.80;;;;;;;17.29;46.25;99439.77;105093;1260;65522;-49
2023/03/25 08:52:10;;;;;;;22.20;15.50;;;;;;;17.32;46.24;99441.27;105118;1258;62679;-49
2023/03/25 08:54:39;;;;;;;16.30;13.80;;;;;;;17.35;46.09;99443.55;105373;1256;65041;-49
2023/03/25 08:57:08;;;;;;;18.40;14.80;;;;;;;17.40;45.96;99445.80;105416;1260;59767;-49
2023/03/25 08:59:36;;;;;;;17.20;15.00;;;;;;;17.44;45.77;99441.67;105241;1255;59657;-47
2023/03/25 09:02:05;;;;;;;19.50;15.60;;;;;;;17.49;45.74;99440.21;105161;1256;65614;-50
2023/03/25 09:04:39;;;;;;;19.90;14.50;;;;;;;17.54;45.77;99432.14;105340;1259;62854;-48
2023/03/25 09:07:09;;;;;;;18.70;13.80;;;;;;;17.62;45.88;99427.84;105187;1258;64727;-50
2023/03/25 09:09:40;;;;;;;18.00;13.90;;;;;;;17.70;45.44;99427.02;105338;1260;59745;-53
2023/03/25 09:12:12;;;;;;;15.90;13.00;;;;;;;17.77;45.11;99429.88;105497;1259;59736;-52
2023/03/25 09:14:40;;;;;;;18.00;14.10;;;;;;;17.80;44.79;99432.29;105252;1259;65839;-51
2023/03/25 09:17:09;;;;;;;17.40;14.10;;;;;;;17.83;44.93;99432.43;105127;1259;62769;-49
2023/03/25 09:19:39;;;;;;;17.90;13.40;;;;;;;17.90;44.96;99439.78;105450;1260;65051;-49
2023/03/25 09:22:08;;;;;;;16.90;14.30;;;;;;;17.98;44.85;99436.16;105171;1256;60840;-52
2023/03/25 09:24:36;;;;;;;16.60;13.80;;;;;;;18.06;44.91;99437.08;105334;1260;59673;-51
2023/03/25 09:27:05;;;;;;;17.00;13.90;;;;;;;18.14;44.30;99439.13;105242;1260;65435;-50
2023/03/25 09:29:34;;;;;;;17.00;13.80;;;;;;;18.17;44.15;99436.23;105386;1259;62895;-49
2023/03/25 09:32:17;;;;;;;17.10;13.30;;;;;;;18.18;43.90;99434.98;105266;1259;65144;-49
2023/03/25 09:34:47;;;;;;;16.50;13.70;;;;;;;18.19;43.81;99431.73;105367;1258;59638;-50
2023/03/25 09:37:15;;;;;;;17.80;14.30;;;;;;;18.20;43.73;99431.88;105579;1258;60831;-51
2023/03/25 09:39:44;;;;;;;17.60;14.40;;;;;;;18.22;43.36;99434.35;105378;1257;64315;-49
2023/03/25 09:42:24;;;;;;;18.70;14.30;;;;;;;18.20;43.41;99430.65;105364;1260;62605;-50
2023/03/25 09:45:05;;;;;;;16.70;13.00;;;;;;;18.19;43.63;99432.13;105262;1260;64915;-62
2023/03/25 09:47:51;;;;;;;19.00;14.70;;;;;;;18.20;43.73;99431.27;105331;1257;60437;-63
2023/03/25 09:50:19;;;;;;;15.80;13.00;;;;;;;18.21;43.88;99432.58;105933;1260;60476;-61
2023/03/25 09:53:00;;;;;;;18.50;14.60;;;;;;;18.22;44.04;99429.27;105901;1263;66041;-65
2023/03/25 09:55:31;;;;;;;16.50;13.30;;;;;;;18.22;43.81;99435.13;105461;1260;62357;-63
2023/03/25 09:58:22;;;;;;;20.00;16.00;;;;;;;18.17;43.68;99435.30;105919;1261;65027;-65
2023/03/25 10:01:04;;;;;;;22.10;16.00;;;;;;;18.08;43.90;99429.92;105182;1258;60478;-64
2023/03/25 10:03:55;;;;;;;19.50;15.80;;;;;;;18.01;44.04;99420.45;105335;1260;60642;-64
2023/03/25 10:06:26;;;;;;;18.90;14.80;;;;;;;17.98;44.16;99416.70;105114;1261;66199;-64
2023/03/25 10:09:11;;;;;;;18.10;14.60;;;;;;;17.97;44.36;99409.09;105791;1259;71384;-62
2023/03/25 10:12:18;;;;;;;18.10;14.40;;;;;;;17.97;44.41;99401.02;105235;1259;63998;-64
2023/03/25 10:14:50;;;;;;;21.10;16.30;;;;;;;17.97;44.34;99391.85;105372;1257;61216;-63
2023/03/25 10:17:39;;;;;;;20.40;16.50;;;;;;;17.95;44.34;99384.14;105476;1260;60487;-63
2023/03/25 10:20:17;;;;;;;21.30;15.60;;;;;;;17.95;44.27;99386.14;105713;1257;66973;-65
2023/03/25 10:23:16;;;;;;;22.70;15.90;;;;;;;17.95;44.45;99388.56;106019;1258;62452;-64
2023/03/25 10:25:45;;;;;;;19.10;15.30;;;;;;;17.96;44.50;99389.47;105734;1262;65056;-68
2023/03/25 10:28:25;;;;;;;17.80;15.60;;;;;;;17.97;44.61;99396.81;105828;1257;60543;-64
2023/03/25 10:30:53;;;;;;;19.60;15.60;;;;;;;17.98;44.47;99398.45;105823;1259;60540;-63
2023/03/25 10:33:40;;;;;;;23.90;17.00;;;;;;;17.99;44.26;99397.35;105787;1266;66217;-64
2023/03/25 10:36:16;;;;;;;20.30;16.80;;;;;;;17.97;44.23;99393.65;105099;1258;62681;-63
2023/03/25 10:38:46;;;;;;;21.30;16.80;;;;;;;17.97;44.02;99390.46;106010;1260;64168;-63
2023/03/25 10:41:35;;;;;;;19.90;17.30;;;;;;;17.98;44.07;99381.21;105626;1260;60447;-63
2023/03/25 10:44:08;;;;;;;18.30;15.70;;;;;;;18.00;43.99;99374.42;105191;1263;60522;-65
2023/03/25 10:47:05;;;;;;;23.10;17.90;;;;;;;18.02;44.06;99376.33;105402;1258;65916;-66
2023/03/25 10:49:35;;;;;;;21.90;18.00;;;;;;;18.01;44.04;99372.43;105501;1257;63048;-67
2023/03/25 10:52:04;;;;;;;25.70;18.30;;;;;;;17.99;44.19;99371.36;105829;1258;64871;-64
2023/03/25 10:54:38;;;;;;;19.60;17.20;;;;;;;18.00;44.30;99368.62;105481;1258;60574;-64
2023/03/25 10:57:15;;;;;;;20.10;16.80;;;;;;;18.01;43.94;99360.30;105302;1263;61084;-63
2023/03/25 11:00:15;;;;;;;22.40;18.10;;;;;;;18.00;43.58;99361.36;105820;1262;66192;-62
2023/03/25 11:02:44;;;;;;;21.20;16.50;;;;;;;17.99;43.75;99353.49;105814;1263;63052;-63
2023/03/25 11:05:17;;;;;;;20.80;16.80;;;;;;;18.01;43.97;99349.45;105835;1260;64770;-63
2023/03/25 11:07:57;;;;;;;21.10;17.50;;;;;;;18.06;43.83;99351.07;105377;1260;60578;-63
2023/03/25 11:10:31;;;;;;;20.80;17.70;;;;;;;18.09;43.75;99346.71;105430;1256;60694;-61
2023/03/25 11:13:05;;;;;;;21.00;17.20;;;;;;;18.11;43.54;99335.63;105424;1257;65097;-63
2023/03/25 11:15:35;;;;;;;20.80;16.80;;;;;;;18.12;43.75;99333.17;105318;1258;62703;-61
2023/03/25 11:18:12;;;;;;;21.20;18.10;;;;;;;18.15;43.91;99335.23;105203;1260;65107;-64
2023/03/25 11:20:54;;;;;;;19.70;16.40;;;;;;;18.21;43.60;99330.96;105195;1258;60914;-61
2023/03/25 11:23:55;;;;;;;20.50;16.70;;;;;;;18.27;43.66;99329.51;105242;1262;60364;-62
2023/03/25 11:26:29;;;;;;;20.60;17.00;;;;;;;18.34;43.48;99318.48;105133;1260;65912;-65
2023/03/25 11:29:03;;;;;;;18.80;15.00;;;;;;;18.40;43.48;99314.52;105403;1260;62405;-65
2023/03/25 11:31:35;;;;;;;23.40;18.10;;;;;;;18.46;43.56;99322.56;105785;1258;65059;-63
2023/03/25 11:34:09;;;;;;;23.60;16.70;;;;;;;18.50;43.43;99326.92;105696;1254;60708;-61
2023/03/25 11:36:54;;;;;;;21.80;17.40;;;;;;;18.51;43.11;99324.15;105553;1261;60402;-60
2023/03/25 11:39:31;;;;;;;24.90;17.10;;;;;;;18.47;42.86;99327.86;105434;1257;65956;-65
2023/03/25 11:42:09;;;;;;;20.40;17.70;;;;;;;18.37;42.80;99335.28;105338;1257;62629;-62
2023/03/25 11:44:37;;;;;;;20.30;17.60;;;;;;;18.28;43.09;99333.77;105745;1260;65276;-62
2023/03/25 11:47:07;;;;;;;22.00;16.50;;;;;;;18.23;43.30;99333.70;105297;1263;60571;-63
2023/03/25 11:49:38;;;;;;;19.10;16.60;;;;;;;18.20;43.28;99333.73;105818;1258;60470;-62
2023/03/25 11:52:08;;;;;;;22.50;17.10;;;;;;;18.16;43.36;99330.77;105543;1260;65005;-65
2023/03/25 11:54:38;;;;;;;21.90;17.80;;;;;;;18.13;43.44;99329.16;105425;1260;62351;-61
2023/03/25 11:57:11;;;;;;;23.30;17.10;;;;;;;18.12;43.63;99330.71;105455;1264;65117;-62